createdAt,value
2018-09-29T00:01:39.221Z,5.20
2018-09-29T00:04:06.509Z,4.30
2018-09-29T00:06:33.757Z,3.57
2018-09-29T00:09:01.053Z,3.80
2018-09-29T00:11:28.404Z,4.00
2018-09-29T00:13:55.601Z,3.53
2018-09-29T00:16:23.030Z,3.70
2018-09-29T00:18:50.315Z,3.80
2018-09-29T00:21:17.460Z,4.17
2018-09-29T00:23:44.705Z,3.67
2018-09-29T00:26:11.888Z,3.53
2018-09-29T00:28:39.104Z,3.90
2018-09-29T00:31:06.402Z,3.80
2018-09-29T00:33:33.604Z,3.73
2018-09-29T00:36:00.960Z,3.33
2018-09-29T00:38:28.166Z,3.73
2018-09-29T00:40:55.533Z,3.17
2018-09-29T00:43:22.880Z,3.20
2018-09-29T00:45:50.096Z,4.03
2018-09-29T00:48:17.340Z,4.10
2018-09-29T00:50:44.586Z,4.23
2018-09-29T00:53:17.351Z,3.40
2018-09-29T00:55:44.623Z,3.67
2018-09-29T00:58:11.918Z,3.70
2018-09-29T01:00:43.175Z,3.80
2018-09-29T01:03:10.325Z,4.20
2018-09-29T01:05:37.513Z,3.60
2018-09-29T01:08:04.676Z,3.23
2018-09-29T01:10:31.934Z,3.60
2018-09-29T01:12:59.237Z,4.23
2018-09-29T01:15:26.561Z,3.80
2018-09-29T01:17:53.728Z,3.97
2018-09-29T01:20:21.161Z,3.93
2018-09-29T01:22:48.394Z,3.23
2018-09-29T01:25:16.042Z,3.90
2018-09-29T01:27:43.303Z,3.53
2018-09-29T01:30:11.309Z,3.43
2018-09-29T01:32:39.216Z,3.70
2018-09-29T01:35:06.363Z,3.60
2018-09-29T01:37:33.595Z,3.37
2018-09-29T01:40:00.902Z,3.20
2018-09-29T01:42:28.172Z,3.27
2018-09-29T01:44:55.457Z,3.57
2018-09-29T01:47:22.826Z,3.77
2018-09-29T01:49:50.076Z,4.23
2018-09-29T01:52:17.306Z,3.40
2018-09-29T01:54:44.641Z,3.43
2018-09-29T01:57:12.115Z,3.57
2018-09-29T01:59:39.433Z,3.23
2018-09-29T02:02:06.698Z,3.93
2018-09-29T02:04:34.322Z,3.97
2018-09-29T02:07:01.677Z,3.03
2018-09-29T02:09:28.826Z,4.47
2018-09-29T02:11:56.079Z,4.23
2018-09-29T02:14:23.561Z,4.10
2018-09-29T02:16:50.859Z,3.40
2018-09-29T02:19:18.115Z,4.30
2018-09-29T02:21:47.438Z,3.10
2018-09-29T02:24:14.958Z,3.47
2018-09-29T02:26:42.183Z,3.27
2018-09-29T02:29:09.425Z,3.57
2018-09-29T02:31:36.577Z,3.50
2018-09-29T02:34:03.845Z,3.87
2018-09-29T02:36:31.378Z,3.73
2018-09-29T02:38:58.636Z,4.00
2018-09-29T02:41:25.841Z,3.30
2018-09-29T02:43:53.013Z,4.00
2018-09-29T02:46:20.209Z,4.00
2018-09-29T02:48:47.425Z,3.63
2018-09-29T02:51:14.704Z,3.67
2018-09-29T02:53:42.010Z,3.77
2018-09-29T02:56:09.282Z,4.10
2018-09-29T02:58:36.767Z,4.10
2018-09-29T03:01:03.977Z,3.60
2018-09-29T03:03:31.125Z,3.90
2018-09-29T03:05:58.254Z,3.40
2018-09-29T03:08:25.788Z,4.33
2018-09-29T03:10:52.999Z,3.63
2018-09-29T03:13:20.210Z,3.50
2018-09-29T03:15:47.372Z,3.30
2018-09-29T03:18:14.510Z,3.47
2018-09-29T03:20:41.867Z,3.20
2018-09-29T03:23:09.103Z,3.50
2018-09-29T03:25:36.344Z,3.40
2018-09-29T03:28:03.515Z,3.20
2018-09-29T03:30:30.700Z,3.67
2018-09-29T03:32:57.940Z,3.63
2018-09-29T03:35:25.375Z,3.60
2018-09-29T03:37:52.550Z,3.70
2018-09-29T03:40:19.803Z,3.43
2018-09-29T03:42:46.993Z,3.40
2018-09-29T03:45:14.276Z,3.27
2018-09-29T03:47:41.545Z,3.63
2018-09-29T03:50:08.819Z,3.17
2018-09-29T03:52:36.008Z,3.10
2018-09-29T03:55:03.362Z,3.50
2018-09-29T03:57:30.696Z,4.07
2018-09-29T03:59:57.888Z,3.20
2018-09-29T04:02:25.982Z,3.40
2018-09-29T04:04:53.211Z,3.57
2018-09-29T04:07:20.457Z,3.77
2018-09-29T04:09:47.712Z,4.27
2018-09-29T04:12:15.400Z,3.23
2018-09-29T04:14:42.639Z,3.47
2018-09-29T04:17:14.141Z,2.90
2018-09-29T04:19:41.367Z,3.60
2018-09-29T04:22:08.626Z,4.40
2018-09-29T04:24:35.800Z,3.50
2018-09-29T04:27:03.009Z,2.90
2018-09-29T04:29:30.201Z,3.07
2018-09-29T04:31:57.609Z,3.97
2018-09-29T04:34:24.737Z,3.53
2018-09-29T04:36:52.092Z,3.70
2018-09-29T04:39:19.333Z,3.90
2018-09-29T04:41:46.565Z,3.60
2018-09-29T04:44:13.697Z,3.57
2018-09-29T04:46:41.567Z,4.17
2018-09-29T04:49:08.875Z,3.03
2018-09-29T04:51:36.578Z,4.20
2018-09-29T04:54:03.976Z,3.90
2018-09-29T04:56:31.772Z,2.80
2018-09-29T04:58:59.152Z,3.40
2018-09-29T05:01:26.657Z,3.93
2018-09-29T05:03:54.113Z,2.80
2018-09-29T05:06:21.445Z,4.03
2018-09-29T05:08:48.724Z,3.27
2018-09-29T05:11:15.931Z,3.53
2018-09-29T05:13:43.184Z,3.80
2018-09-29T05:16:10.527Z,3.57
2018-09-29T05:18:37.881Z,3.77
2018-09-29T05:21:05.263Z,4.03
2018-09-29T05:23:32.592Z,5.10
2018-09-29T05:25:59.792Z,4.03
2018-09-29T05:31:01.180Z,3.60
2018-09-29T05:33:29.461Z,3.93
2018-09-29T05:35:56.896Z,3.20
2018-09-29T05:38:24.274Z,3.67
2018-09-29T05:40:51.929Z,4.40
2018-09-29T05:43:19.235Z,6.87
2018-09-29T05:45:46.704Z,4.47
2018-09-29T05:48:13.980Z,3.43
2018-09-29T05:50:41.160Z,3.87
2018-09-29T05:53:08.702Z,4.13
2018-09-29T05:55:36.110Z,4.00
2018-09-29T06:00:42.794Z,3.73
2018-09-29T06:03:10.309Z,3.90
2018-09-29T06:05:38.419Z,3.40
2018-09-29T06:08:06.160Z,3.77
2018-09-29T06:10:33.677Z,4.00
2018-09-29T06:13:01.267Z,4.47
2018-09-29T06:15:28.979Z,5.47
2018-09-29T06:17:56.302Z,3.63
2018-09-29T06:20:25.886Z,3.80
2018-09-29T06:22:53.389Z,4.10
2018-09-29T06:25:20.864Z,3.53
2018-09-29T06:27:48.144Z,3.63
2018-09-29T06:30:15.521Z,4.00
2018-09-29T06:32:43.645Z,4.07
2018-09-29T06:35:10.904Z,4.53
2018-09-29T06:37:40.067Z,4.77
2018-09-29T06:40:15.120Z,4.20
2018-09-29T06:42:44.161Z,6.30
2018-09-29T06:45:19.385Z,4.27
2018-09-29T06:47:53.494Z,4.40
2018-09-29T06:50:22.260Z,4.10
2018-09-29T06:52:49.794Z,3.70
2018-09-29T06:55:17.039Z,3.90
2018-09-29T06:57:44.458Z,3.40
2018-09-29T07:00:11.707Z,3.90
2018-09-29T07:02:38.976Z,3.80
2018-09-29T07:05:14.168Z,4.30
2018-09-29T07:07:41.524Z,3.50
2018-09-29T07:10:08.768Z,5.73
2018-09-29T07:12:35.957Z,3.63
2018-09-29T07:15:03.584Z,3.80
2018-09-29T07:17:30.845Z,4.60
2018-09-29T07:19:58.239Z,4.80
2018-09-29T07:22:25.689Z,3.70
2018-09-29T07:24:52.935Z,4.70
2018-09-29T07:27:20.088Z,3.50
2018-09-29T07:29:47.592Z,3.43
2018-09-29T07:32:14.846Z,5.03
2018-09-29T07:34:49.759Z,4.10
2018-09-29T07:37:17.475Z,3.93
2018-09-29T07:39:44.752Z,3.60
2018-09-29T07:42:12.067Z,4.50
2018-09-29T07:44:39.298Z,5.33
2018-09-29T07:47:06.707Z,5.33
2018-09-29T07:49:35.219Z,3.87
2018-09-29T07:52:02.534Z,4.43
2018-09-29T07:54:29.896Z,4.77
2018-09-29T07:56:57.318Z,4.47
2018-09-29T07:59:24.914Z,4.33
2018-09-29T08:01:52.158Z,5.10
2018-09-29T08:04:19.585Z,5.07
2018-09-29T08:06:46.837Z,3.40
2018-09-29T08:09:14.111Z,3.73
2018-09-29T08:11:41.401Z,5.53
2018-09-29T08:14:09.745Z,4.70
2018-09-29T08:16:36.967Z,5.17
2018-09-29T08:19:04.438Z,3.90
2018-09-29T08:21:31.792Z,3.90
2018-09-29T08:23:58.959Z,3.80
2018-09-29T08:26:26.552Z,4.33
2018-09-29T08:28:53.741Z,4.17
2018-09-29T08:31:21.245Z,3.97
2018-09-29T08:33:48.517Z,4.60
2018-09-29T08:36:15.717Z,4.63
2018-09-29T08:38:42.932Z,3.87
2018-09-29T08:41:10.176Z,4.30
2018-09-29T08:43:37.421Z,4.17
2018-09-29T08:46:05.417Z,4.00
2018-09-29T08:48:33.188Z,4.20
2018-09-29T08:51:00.439Z,4.40
2018-09-29T08:53:32.806Z,3.90
2018-09-29T08:56:00.044Z,6.00
2018-09-29T08:58:27.304Z,5.10
2018-09-29T09:03:32.057Z,4.20
2018-09-29T09:05:59.299Z,4.53
2018-09-29T09:08:28.660Z,4.10
2018-09-29T09:10:56.093Z,3.87
2018-09-29T09:13:23.345Z,4.20
2018-09-29T09:15:50.781Z,4.53
2018-09-29T09:18:18.048Z,5.30
2018-09-29T09:20:45.389Z,5.10
2018-09-29T09:23:12.795Z,4.80
2018-09-29T09:25:39.983Z,4.60
2018-09-29T09:28:07.489Z,3.97
2018-09-29T09:30:35.980Z,4.77
2018-09-29T09:33:03.932Z,4.47
2018-09-29T09:35:31.587Z,4.20
2018-09-29T09:37:59.008Z,4.30
2018-09-29T09:40:26.462Z,4.10
2018-09-29T09:42:54.077Z,5.57
2018-09-29T09:45:21.359Z,3.93
2018-09-29T09:47:48.571Z,5.40
2018-09-29T09:50:16.473Z,5.03
2018-09-29T09:52:43.793Z,4.30
2018-09-29T09:55:11.056Z,6.60
2018-09-29T09:57:38.509Z,3.70
2018-09-29T10:00:07.805Z,3.40
2018-09-29T10:02:40.803Z,4.47
2018-09-29T10:05:08.010Z,3.60
2018-09-29T10:07:35.444Z,3.93
2018-09-29T10:10:02.725Z,3.53
2018-09-29T10:12:30.092Z,3.63
2018-09-29T10:14:57.277Z,3.43
2018-09-29T10:17:24.482Z,3.30
2018-09-29T10:19:52.348Z,3.60
2018-09-29T10:22:20.229Z,3.87
2018-09-29T10:24:47.467Z,3.17
2018-09-29T10:27:18.729Z,2.77
2018-09-29T10:29:46.012Z,3.33
2018-09-29T10:32:13.281Z,4.20
2018-09-29T10:34:40.535Z,4.33
2018-09-29T10:37:07.739Z,3.10
2018-09-29T10:39:35.681Z,3.40
2018-09-29T10:42:03.140Z,3.10
2018-09-29T10:44:30.448Z,3.37
2018-09-29T10:46:57.766Z,2.50
2018-09-29T10:49:25.005Z,3.10
2018-09-29T10:51:52.308Z,3.53
2018-09-29T10:54:19.505Z,2.80
2018-09-29T10:56:47.079Z,3.33
2018-09-29T10:59:14.479Z,2.70
2018-09-29T11:01:41.645Z,2.97
2018-09-29T11:04:08.901Z,3.00
2018-09-29T11:06:36.240Z,3.50
2018-09-29T11:09:05.337Z,3.30
2018-09-29T11:11:32.737Z,4.13
2018-09-29T11:14:00.052Z,3.33
2018-09-29T11:16:27.437Z,3.37
2018-09-29T11:18:54.810Z,3.20
2018-09-29T11:21:22.245Z,3.73
2018-09-29T11:23:49.397Z,2.90
2018-09-29T11:26:16.789Z,3.10
2018-09-29T11:28:44.028Z,3.60
2018-09-29T11:31:11.431Z,5.40
2018-09-29T11:33:38.897Z,3.73
2018-09-29T11:36:06.292Z,3.40
2018-09-29T11:38:33.576Z,3.30
2018-09-29T11:41:00.948Z,3.10
2018-09-29T11:43:28.197Z,3.30
2018-09-29T11:45:55.471Z,3.23
2018-09-29T11:48:22.857Z,3.30
2018-09-29T11:50:50.076Z,3.10
2018-09-29T11:53:17.327Z,3.20
2018-09-29T11:55:45.912Z,3.37
2018-09-29T11:58:13.096Z,3.40
2018-09-29T12:00:41.663Z,3.50
2018-09-29T12:03:08.916Z,3.87
2018-09-29T12:05:37.406Z,3.23
2018-09-29T12:08:04.754Z,3.20
2018-09-29T12:10:31.997Z,3.30
2018-09-29T12:12:59.444Z,4.00
2018-09-29T12:15:27.212Z,3.50
2018-09-29T12:17:54.626Z,2.97
2018-09-29T12:20:22.375Z,3.23
2018-09-29T12:22:49.730Z,3.17
2018-09-29T12:25:17.037Z,3.27
2018-09-29T12:27:44.845Z,2.60
2018-09-29T12:30:12.194Z,2.90
2018-09-29T12:32:39.652Z,2.47
2018-09-29T12:35:06.848Z,3.40
2018-09-29T12:37:34.144Z,3.20
2018-09-29T12:40:01.595Z,3.53
2018-09-29T12:42:29.111Z,3.23
2018-09-29T12:44:56.609Z,2.90
2018-09-29T12:47:26.089Z,2.57
2018-09-29T12:49:53.341Z,3.17
2018-09-29T12:52:20.602Z,2.80
2018-09-29T12:54:47.994Z,2.70
2018-09-29T12:57:15.351Z,3.00
2018-09-29T12:59:42.712Z,2.70
2018-09-29T13:02:10.009Z,3.07
2018-09-29T13:04:37.941Z,3.27
2018-09-29T13:07:05.382Z,3.00
2018-09-29T13:09:36.834Z,3.13
2018-09-29T13:12:04.190Z,3.20
2018-09-29T13:14:31.393Z,3.00
2018-09-29T13:16:58.923Z,2.97
2018-09-29T13:22:56.826Z,2.20
2018-09-29T13:25:24.032Z,3.00
2018-09-29T13:27:51.085Z,2.93
2018-09-29T13:30:18.550Z,2.43
2018-09-29T13:32:45.745Z,2.90
2018-09-29T13:38:33.866Z,2.10
2018-09-29T13:41:00.996Z,2.60
2018-09-29T13:43:28.105Z,3.00
2018-09-29T13:45:55.302Z,3.00
2018-09-29T13:48:22.595Z,2.67
2018-09-29T13:50:49.723Z,2.30
2018-09-29T13:53:16.963Z,5.10
2018-09-29T13:55:44.107Z,3.63
2018-09-29T13:58:11.210Z,2.70
2018-09-29T14:00:38.396Z,3.13
2018-09-29T14:03:05.844Z,4.60
2018-09-29T14:05:33.211Z,3.07
2018-09-29T14:08:00.373Z,2.80
2018-09-29T14:10:27.483Z,3.23
2018-09-29T14:12:54.723Z,2.30
2018-09-29T14:15:21.909Z,2.90
2018-09-29T14:17:49.017Z,2.87
2018-09-29T14:20:16.100Z,2.40
2018-09-29T14:22:43.282Z,2.23
2018-09-29T14:25:10.349Z,2.67
2018-09-29T14:27:43.697Z,2.87
2018-09-29T14:30:10.813Z,2.93
2018-09-29T14:32:37.890Z,2.30
2018-09-29T14:35:05.012Z,2.80
2018-09-29T14:37:32.158Z,2.70
2018-09-29T14:39:59.274Z,3.10
2018-09-29T14:42:26.424Z,2.90
2018-09-29T14:44:53.950Z,2.70
2018-09-29T14:47:21.096Z,3.00
2018-09-29T14:49:48.218Z,2.40
2018-09-29T14:52:15.323Z,2.50
2018-09-29T14:54:42.470Z,2.53
2018-09-29T14:57:10.319Z,3.63
2018-09-29T14:59:37.508Z,2.20
2018-09-29T15:02:04.717Z,2.40
2018-09-29T15:04:31.920Z,2.70
2018-09-29T15:06:59.037Z,2.50
2018-09-29T15:09:26.145Z,2.50
2018-09-29T15:11:53.289Z,2.40
2018-09-29T15:14:20.450Z,2.37
2018-09-29T15:16:47.548Z,2.13
2018-09-29T15:19:14.804Z,3.10
2018-09-29T15:21:41.996Z,3.07
2018-09-29T15:24:09.107Z,3.03
2018-09-29T15:26:36.269Z,2.70
2018-09-29T15:29:03.388Z,2.50
2018-09-29T15:31:30.477Z,2.40
2018-09-29T15:33:57.565Z,3.37
2018-09-29T15:36:24.722Z,2.97
2018-09-29T15:38:51.800Z,4.30
2018-09-29T15:41:18.908Z,2.97
2018-09-29T15:43:46.026Z,2.60
2018-09-29T15:46:13.204Z,2.30
2018-09-29T15:48:40.387Z,2.70
2018-09-29T15:51:07.481Z,2.37
2018-09-29T15:53:34.584Z,2.80
2018-09-29T15:56:01.861Z,2.57
2018-09-29T15:58:28.947Z,2.60
2018-09-29T16:00:56.030Z,2.40
2018-09-29T16:03:23.138Z,2.47
2018-09-29T16:05:50.360Z,3.20
2018-09-29T16:08:17.477Z,2.70
2018-09-29T16:10:44.598Z,2.97
2018-09-29T16:13:11.835Z,3.70
2018-09-29T16:15:41.057Z,3.10
2018-09-29T16:18:08.260Z,3.00
2018-09-29T16:20:35.395Z,2.83
2018-09-29T16:23:02.466Z,3.27
2018-09-29T16:25:31.584Z,2.97
2018-09-29T16:27:58.651Z,3.00
2018-09-29T16:30:25.810Z,2.90
2018-09-29T16:32:52.991Z,3.40
2018-09-29T16:35:20.180Z,2.43
2018-09-29T16:37:47.332Z,2.70
2018-09-29T16:40:14.588Z,2.87
2018-09-29T16:42:41.686Z,2.73
2018-09-29T16:45:09.862Z,2.50
2018-09-29T16:47:36.980Z,2.90
2018-09-29T16:50:04.169Z,3.03
2018-09-29T16:52:31.311Z,3.07
2018-09-29T16:54:58.468Z,2.83
2018-09-29T16:57:26.000Z,3.47
2018-09-29T16:59:53.101Z,2.90
2018-09-29T17:02:20.235Z,2.77
2018-09-29T17:04:47.420Z,3.50
2018-09-29T17:07:14.422Z,3.27
2018-09-29T17:09:41.621Z,4.03
2018-09-29T17:12:08.794Z,2.90
2018-09-29T17:14:35.959Z,3.77
2018-09-29T17:17:03.193Z,3.37
2018-09-29T17:19:30.588Z,3.47
2018-09-29T17:21:57.819Z,3.63
2018-09-29T17:24:24.967Z,3.90
2018-09-29T17:26:52.234Z,4.13
2018-09-29T17:29:19.454Z,4.47
2018-09-29T17:31:48.747Z,5.00
2018-09-29T17:34:15.883Z,3.97
2018-09-29T17:36:42.992Z,4.20
2018-09-29T17:39:11.084Z,4.60
2018-09-29T17:41:38.557Z,4.53
2018-09-29T17:44:05.706Z,4.63
2018-09-29T17:46:35.196Z,4.00
2018-09-29T17:49:02.648Z,4.83
2018-09-29T17:51:29.973Z,4.60
2018-09-29T17:53:57.152Z,5.43
2018-09-29T17:56:24.421Z,5.00
2018-09-29T17:58:51.683Z,5.90
2018-09-29T18:01:18.784Z,5.63
2018-09-29T18:03:45.950Z,5.47
2018-09-29T18:06:13.087Z,4.93
2018-09-29T18:08:40.285Z,5.60
2018-09-29T18:11:07.406Z,6.40
2018-09-29T18:13:34.594Z,6.50
2018-09-29T18:16:01.904Z,7.30
2018-09-29T18:18:28.971Z,7.57
2018-09-29T18:20:56.180Z,6.90
2018-09-29T18:23:23.395Z,6.00
2018-09-29T18:25:50.570Z,6.70
2018-09-29T18:28:18.853Z,6.70
2018-09-29T18:30:46.111Z,6.07
2018-09-29T18:33:13.267Z,5.50
2018-09-29T18:35:40.443Z,6.43
2018-09-29T18:38:07.586Z,7.40
2018-09-29T18:40:34.729Z,6.77
2018-09-29T18:43:01.937Z,6.90
2018-09-29T18:45:29.196Z,7.07
2018-09-29T18:47:56.430Z,6.73
2018-09-29T18:50:23.643Z,7.67
2018-09-29T18:52:50.830Z,7.17
2018-09-29T18:55:17.939Z,7.60
2018-09-29T18:57:45.117Z,7.33
2018-09-29T19:00:12.281Z,7.87
2018-09-29T19:02:39.683Z,7.47
2018-09-29T19:05:06.911Z,7.43
2018-09-29T19:07:34.100Z,6.83
2018-09-29T19:10:01.273Z,7.90
2018-09-29T19:12:28.436Z,7.87
2018-09-29T19:14:55.653Z,7.27
2018-09-29T19:17:22.776Z,7.00
2018-09-29T19:19:49.958Z,8.23
2018-09-29T19:22:17.161Z,7.60
2018-09-29T19:24:44.293Z,7.93
2018-09-29T19:27:11.399Z,9.00
2018-09-29T19:29:38.559Z,8.57
2018-09-29T19:32:05.769Z,7.93
2018-09-29T19:34:33.069Z,9.40
2018-09-29T19:37:00.295Z,7.67
2018-09-29T19:39:27.475Z,6.50
2018-09-29T19:41:54.612Z,7.60
2018-09-29T19:44:21.769Z,7.70
2018-09-29T19:46:48.989Z,7.87
2018-09-29T19:49:16.253Z,8.30
2018-09-29T19:51:43.509Z,8.63
2018-09-29T19:54:11.190Z,7.40
2018-09-29T19:56:38.441Z,7.27
2018-09-29T19:59:05.611Z,6.83
2018-09-29T20:01:32.865Z,7.30
2018-09-29T20:04:00.042Z,7.17
2018-09-29T20:06:27.295Z,7.93
2018-09-29T20:08:54.422Z,7.00
2018-09-29T20:11:21.576Z,7.60
2018-09-29T20:13:48.760Z,8.43
2018-09-29T20:16:15.913Z,8.47
2018-09-29T20:18:43.114Z,9.53
2018-09-29T20:21:10.464Z,7.97
2018-09-29T20:23:37.633Z,10.30
2018-09-29T20:26:04.943Z,8.80
2018-09-29T20:28:32.220Z,7.37
2018-09-29T20:30:59.404Z,8.50
2018-09-29T20:33:26.624Z,8.37
2018-09-29T20:35:53.864Z,9.23
2018-09-29T20:38:21.274Z,8.13
2018-09-29T20:40:48.483Z,8.63
2018-09-29T20:43:15.632Z,7.97
2018-09-29T20:45:42.904Z,8.07
2018-09-29T20:48:10.109Z,7.73
2018-09-29T20:50:37.359Z,8.60
2018-09-29T20:53:04.549Z,8.03
2018-09-29T20:55:31.844Z,9.30
2018-09-29T20:57:58.957Z,8.70
2018-09-29T21:00:26.139Z,9.50
2018-09-29T21:02:53.336Z,10.37
2018-09-29T21:05:20.533Z,10.20
2018-09-29T21:07:47.637Z,11.77
2018-09-29T21:10:14.819Z,10.63
2018-09-29T21:12:42.004Z,9.97
2018-09-29T21:15:09.050Z,10.57
2018-09-29T21:17:36.167Z,11.90
2018-09-29T21:20:03.707Z,10.30
2018-09-29T21:22:30.946Z,10.07
2018-09-29T21:25:04.955Z,9.33
2018-09-29T21:27:32.053Z,8.73
2018-09-29T21:30:00.112Z,9.00
2018-09-29T21:32:29.388Z,7.97
2018-09-29T21:34:56.791Z,7.97
2018-09-29T21:37:23.911Z,7.10
2018-09-29T21:39:51.093Z,6.57
2018-09-29T21:42:18.258Z,6.90
2018-09-29T21:44:45.449Z,7.70
2018-09-29T21:47:12.639Z,7.10
2018-09-29T21:49:39.896Z,6.77
2018-09-29T21:52:07.157Z,6.90
2018-09-29T21:54:34.390Z,7.23
2018-09-29T21:57:01.685Z,7.37
2018-09-29T21:59:28.863Z,7.40
2018-09-29T22:01:56.017Z,7.57
2018-09-29T22:04:23.495Z,7.70
2018-09-29T22:06:50.783Z,8.90
2018-09-29T22:09:23.015Z,10.07
2018-09-29T22:11:50.681Z,12.37
2018-09-29T22:14:17.891Z,14.60
2018-09-29T22:16:45.114Z,13.87
2018-09-29T22:19:12.440Z,13.30
2018-09-29T22:21:39.649Z,12.70
2018-09-29T22:24:06.880Z,11.60
2018-09-29T22:26:37.176Z,12.20
2018-09-29T22:29:04.575Z,11.60
2018-09-29T22:31:32.774Z,11.30
2018-09-29T22:33:59.928Z,10.90
2018-09-29T22:36:31.228Z,10.40
2018-09-29T22:38:58.447Z,9.27
2018-09-29T22:41:25.625Z,8.33
2018-09-29T22:43:52.866Z,7.87
2018-09-29T22:46:21.076Z,8.60
2018-09-29T22:48:48.235Z,7.77
2018-09-29T22:51:15.401Z,7.30
2018-09-29T22:53:42.554Z,7.40
2018-09-29T22:56:09.681Z,6.90
2018-09-29T22:58:36.785Z,6.90
2018-09-29T23:01:04.105Z,6.80
2018-09-29T23:03:31.189Z,7.00
2018-09-29T23:05:58.284Z,7.50
2018-09-29T23:08:25.419Z,6.50
2018-09-29T23:10:52.651Z,6.73
2018-09-29T23:13:19.827Z,7.73
2018-09-29T23:15:47.228Z,6.77
2018-09-29T23:18:14.451Z,8.10
2018-09-29T23:20:41.609Z,7.40
2018-09-29T23:23:08.759Z,7.10
2018-09-29T23:25:35.892Z,8.90
2018-09-29T23:28:05.164Z,8.30
2018-09-29T23:30:32.245Z,7.70
2018-09-29T23:32:59.392Z,7.93
2018-09-29T23:35:26.626Z,7.40
2018-09-29T23:38:00.542Z,8.00
2018-09-29T23:40:27.776Z,7.20
2018-09-29T23:42:54.940Z,7.17
2018-09-29T23:45:22.119Z,6.17
2018-09-29T23:47:49.243Z,7.03
2018-09-29T23:50:16.404Z,7.03
2018-09-29T23:52:43.790Z,7.00
2018-09-29T23:55:10.982Z,7.30
2018-09-29T23:57:38.098Z,8.40
